首页
METAR-TAF:

METAR-TAF

机场 :

卡尔斯鲁厄/巴登-巴登机场

巴登-巴登, 德国

纬度: 48-46-43N, 经度: 008-04-47E, 海拔: 124米

当前天气观测

该预报发布于15分钟前的19:20 UTC
风速10节,风向西南
温度 7°C
湿度 70%
气压 1026 hPa
能见度10公里或以上
1500米以下无云,无积雨云

METAR: EDSB 181920Z 22010KT CAVOK 07/02 Q1026

时间: 20:35 (19:35 UTC)

预报

该预报发布于2小时和35分钟前的17:00 UTC
预报有效从18日的 18点(UTC)到 19日的 18点(UTC)
风速10节,风向西南
能见度10公里或以上
散云层高于4500英尺
几率 30% :
短暂存在
从 18日的 23点(UTC)到 19日的 02点(UTC)
风速15节,风向西,有时为25节阵风
多云层高于3000英尺, 积雨云.
阵雨
成为
从 19日的 02点(UTC)到 19日的 04点(UTC)
风速15节,风向西南,有时为25节阵风
短暂存在
从 19日的 04点(UTC)到 19日的 07点(UTC)
风速20节,风向西,有时为30节阵风
多云层高于2000英尺, 积雨云.
阵雨
几率 30% :
短暂存在
从 19日的 07点(UTC)到 19日的 11点(UTC)
风速20节,风向西转西北,有时为30节阵风
多云层高于3000英尺, 积雨云.
阵雨

TAF: EDSB 181700Z 1818/1918 22010KT 9999 SCT045 PROB30 TEMPO 1823/1902 26015G25KT SHRA BKN030CB BECMG 1902/1904 22015G25KT TEMPO 1904/1907 27020G30KT SHRA BKN020CB PROB30 TEMPO 1907/1911 30020G30KT SHRA BKN030CB

超过4000个机场的气象观测和天气预报(METAR&TAF报告)。

可查询的气象台以黄色和红色小点在地图上表示。

将鼠标移到小点上方,可查看气象台名称。

然后点击查看天气观测和预报。

如需切换地图:点击带黑十字的绿色按钮放大地图;点击带横线的绿色按钮缩小地图;或者点击绿色箭头查看邻近地区的地图。


METAR-TAF: